Newburgh, Indiana
Current Conditions -  °F | °C
As of 2:54 AM on Friday 31 Oct 2014 (Local Time) from KEVV Reporting Station
Overcast Overcast  
Wind Chill: 47°   Ceiling: 4600
Heat Index: 49°   Visibility: 10mi
Dew Point: 43°   Wind: 6mph
Humidity: 80%   Direction: 30°NNE
Pressure: 30.03"   Gusts: NA
Location:  37.95°N, 87.4°W
Report Text: KEVV 310754Z 03005KT 10SM BKN046 OVC060 09/06 A3003 RMK AO2 RAE32 SLP167 P0000 T00940061
Loading
Personal Weather Stations






























Interactive Weather Map
Tropical Storm Tracking
New forecast layout! Learn more

10-Day Weather Forecast

Advertisements
Track Severe Weather on mobile